createdAt,value
2022-09-16T00:00:47.421Z,39.21
2022-09-16T00:03:18.101Z,39.23
2022-09-16T00:05:48.937Z,39.29
2022-09-16T00:08:17.384Z,39.06
2022-09-16T00:10:45.034Z,39.21
2022-09-16T00:13:13.693Z,39.44
2022-09-16T00:15:51.292Z,39.63
2022-09-16T00:18:20.686Z,39.35
2022-09-16T00:20:50.827Z,39.90
2022-09-16T00:23:19.506Z,39.48
2022-09-16T00:25:54.804Z,39.77
2022-09-16T00:28:23.971Z,39.81
2022-09-16T00:30:51.582Z,39.12
2022-09-16T00:33:20.362Z,39.89
2022-09-16T00:35:48.129Z,39.52
2022-09-16T00:38:15.704Z,39.74
2022-09-16T00:40:47.586Z,39.76
2022-09-16T00:43:19.714Z,39.84
2022-09-16T00:45:59.499Z,40.00
2022-09-16T00:48:29.824Z,39.94
2022-09-16T00:51:02.842Z,40.42
2022-09-16T00:53:35.457Z,39.86
2022-09-16T00:56:05.999Z,39.39
2022-09-16T00:58:51.174Z,40.74
2022-09-16T01:01:18.824Z,40.26
2022-09-16T01:03:51.453Z,40.59
2022-09-16T01:06:20.088Z,40.21
2022-09-16T01:08:50.424Z,40.70
2022-09-16T01:11:17.876Z,40.33
2022-09-16T01:13:46.877Z,40.38
2022-09-16T01:16:38.396Z,40.81
2022-09-16T01:19:24.388Z,40.87
2022-09-16T01:22:27.613Z,40.66
2022-09-16T01:25:27.504Z,40.70
2022-09-16T01:28:18.133Z,40.46
2022-09-16T01:31:11.370Z,40.40
2022-09-16T01:34:11.820Z,40.67
2022-09-16T01:37:00.760Z,41.25
2022-09-16T01:39:43.581Z,41.19
2022-09-16T01:42:25.972Z,40.77
2022-09-16T01:45:02.309Z,40.76
2022-09-16T01:47:33.855Z,40.87
2022-09-16T01:50:19.703Z,41.07
2022-09-16T01:53:00.704Z,41.22
2022-09-16T01:55:42.927Z,41.65
2022-09-16T01:58:23.126Z,41.17
2022-09-16T02:00:54.370Z,41.07
2022-09-16T02:03:30.847Z,41.41
2022-09-16T02:06:07.621Z,41.18
2022-09-16T02:08:51.308Z,40.91
2022-09-16T02:11:19.797Z,41.00
2022-09-16T02:14:01.134Z,41.55
2022-09-16T02:16:39.241Z,41.57
2022-09-16T02:19:12.451Z,41.67
2022-09-16T02:21:45.639Z,41.60
2022-09-16T02:24:19.675Z,41.59
2022-09-16T02:26:52.604Z,41.32
2022-09-16T02:29:25.764Z,41.18
2022-09-16T02:31:58.802Z,40.97
2022-09-16T02:34:32.891Z,41.17
2022-09-16T02:37:08.367Z,41.17
2022-09-16T02:39:39.746Z,41.19
2022-09-16T02:42:08.222Z,40.90
2022-09-16T02:44:35.765Z,40.56
2022-09-16T02:47:32.975Z,41.05
2022-09-16T02:50:03.358Z,41.06
2022-09-16T02:52:45.092Z,41.61
2022-09-16T02:55:37.980Z,41.57
2022-09-16T02:58:06.073Z,40.78
2022-09-16T03:00:43.498Z,40.92
2022-09-16T03:03:11.056Z,41.34
2022-09-16T03:06:02.074Z,41.49
2022-09-16T03:08:29.502Z,41.28
2022-09-16T03:11:03.209Z,41.51
2022-09-16T03:13:48.168Z,42.12
2022-09-16T03:16:21.609Z,42.32
2022-09-16T03:19:18.111Z,41.78
2022-09-16T03:22:02.133Z,42.05
2022-09-16T03:24:49.379Z,41.94
2022-09-16T03:27:22.646Z,42.32
2022-09-16T03:29:55.188Z,42.07
2022-09-16T03:32:26.111Z,42.15
2022-09-16T03:35:14.837Z,42.06
2022-09-16T03:37:43.591Z,41.98
2022-09-16T03:40:15.132Z,42.31
2022-09-16T03:42:44.559Z,41.71
2022-09-16T03:45:20.757Z,41.84
2022-09-16T03:47:50.765Z,41.87
2022-09-16T03:50:19.763Z,41.79
2022-09-16T03:52:47.234Z,41.70
2022-09-16T03:55:17.205Z,41.78
2022-09-16T03:57:44.621Z,41.58
2022-09-16T04:00:12.436Z,40.98
2022-09-16T04:02:40.064Z,40.89
2022-09-16T04:05:08.501Z,40.45
2022-09-16T04:07:36.438Z,39.71
2022-09-16T04:10:05.304Z,38.59
2022-09-16T04:12:33.125Z,38.25
2022-09-16T04:15:01.128Z,37.12
2022-09-16T04:17:34.331Z,36.62
2022-09-16T04:20:02.096Z,35.61
2022-09-16T04:22:31.773Z,34.90
2022-09-16T04:24:59.229Z,34.01
2022-09-16T04:27:26.998Z,34.00
2022-09-16T04:29:54.335Z,33.04
2022-09-16T04:32:21.840Z,32.96
2022-09-16T04:34:49.216Z,31.85
2022-09-16T04:37:16.655Z,31.66
2022-09-16T04:39:44.228Z,31.30
2022-09-16T04:42:12.798Z,31.06
2022-09-16T04:44:40.285Z,30.64
2022-09-16T04:47:07.890Z,30.39
2022-09-16T04:49:35.285Z,30.10
2022-09-16T04:52:03.371Z,29.96
2022-09-16T04:54:30.755Z,29.43
2022-09-16T04:56:58.257Z,29.33
2022-09-16T04:59:25.611Z,28.64
2022-09-16T05:01:53.411Z,28.25
2022-09-16T05:04:20.934Z,27.95
2022-09-16T05:06:48.611Z,27.95
2022-09-16T05:09:16.085Z,27.50
2022-09-16T05:11:43.547Z,27.61
2022-09-16T05:14:15.156Z,27.21
2022-09-16T05:16:42.726Z,27.43
2022-09-16T05:19:14.071Z,27.10
2022-09-16T05:21:41.792Z,26.66
2022-09-16T05:24:10.745Z,26.46
2022-09-16T05:26:40.657Z,25.63
2022-09-16T05:29:13.252Z,25.29
2022-09-16T05:31:42.538Z,24.81
2022-09-16T05:34:15.945Z,24.39
2022-09-16T05:36:44.717Z,24.39
2022-09-16T05:39:28.067Z,23.89
2022-09-16T05:41:59.198Z,23.72
2022-09-16T05:44:28.175Z,22.83
2022-09-16T05:46:56.254Z,22.56
2022-09-16T05:49:24.244Z,22.18
2022-09-16T05:51:52.631Z,22.19
2022-09-16T05:54:21.004Z,21.85
2022-09-16T05:56:48.601Z,21.12
2022-09-16T05:59:17.089Z,20.69
2022-09-16T06:01:45.477Z,20.06
2022-09-16T06:04:14.609Z,19.51
2022-09-16T06:06:44.539Z,20.01
2022-09-16T06:09:23.347Z,20.35
2022-09-16T06:11:57.959Z,19.50
2022-09-16T06:14:29.402Z,19.56
2022-09-16T06:16:57.402Z,18.99
2022-09-16T06:19:24.974Z,18.93
2022-09-16T06:21:52.373Z,18.67
2022-09-16T06:24:20.990Z,18.45
2022-09-16T06:26:49.673Z,18.45
2022-09-16T06:29:17.866Z,18.12
2022-09-16T06:31:45.297Z,18.58
2022-09-16T06:34:18.843Z,19.03
2022-09-16T06:36:47.073Z,18.54
2022-09-16T06:39:16.171Z,18.59
2022-09-16T06:41:44.047Z,18.08
2022-09-16T06:44:11.442Z,17.74
2022-09-16T06:46:39.131Z,18.03
2022-09-16T06:49:06.928Z,18.06
2022-09-16T06:51:35.320Z,17.79
2022-09-16T06:54:05.443Z,17.71
2022-09-16T06:56:36.238Z,17.90
2022-09-16T06:59:04.062Z,17.92
2022-09-16T07:01:32.659Z,17.66
2022-09-16T07:04:05.658Z,17.84
2022-09-16T07:09:22.549Z,18.11
2022-09-16T07:11:50.028Z,18.27
2022-09-16T07:14:17.510Z,18.33
2022-09-16T07:16:45.081Z,18.69
2022-09-16T07:19:12.582Z,18.80
2022-09-16T07:21:41.680Z,19.25
2022-09-16T07:24:12.237Z,19.61
2022-09-16T07:26:41.129Z,19.81
2022-09-16T07:29:12.980Z,20.08
2022-09-16T07:31:41.407Z,20.62
2022-09-16T07:34:10.968Z,20.80
2022-09-16T07:36:41.334Z,20.92
2022-09-16T07:39:09.061Z,20.97
2022-09-16T07:41:39.450Z,20.83
2022-09-16T07:44:08.447Z,21.39
2022-09-16T07:46:37.100Z,22.01
2022-09-16T07:49:07.109Z,22.02
2022-09-16T07:51:35.447Z,22.01
2022-09-16T07:54:05.695Z,22.16
2022-09-16T07:56:35.799Z,22.15
2022-09-16T07:59:05.707Z,22.55
2022-09-16T08:01:33.620Z,22.44
2022-09-16T08:04:01.857Z,22.93
2022-09-16T08:06:31.612Z,22.57
2022-09-16T08:09:10.495Z,23.05
2022-09-16T08:11:49.152Z,23.11
2022-09-16T08:14:16.740Z,23.39
2022-09-16T08:16:44.171Z,23.67
2022-09-16T08:19:12.031Z,23.82
2022-09-16T08:21:39.462Z,23.72
2022-09-16T08:24:06.922Z,24.29
2022-09-16T08:26:34.316Z,24.44
2022-09-16T08:29:10.087Z,24.59
2022-09-16T08:31:39.019Z,24.39
2022-09-16T08:34:06.824Z,24.77
2022-09-16T08:36:34.651Z,24.48
2022-09-16T08:39:02.153Z,24.76
2022-09-16T08:41:52.821Z,24.90
2022-09-16T08:44:26.072Z,24.97
2022-09-16T08:46:59.268Z,24.67
2022-09-16T08:49:35.549Z,25.06
2022-09-16T08:52:28.702Z,25.00
2022-09-16T08:55:02.882Z,25.09
2022-09-16T08:57:39.474Z,25.58
2022-09-16T09:00:16.824Z,25.82
2022-09-16T09:02:51.523Z,25.86
2022-09-16T09:05:24.388Z,26.14
2022-09-16T09:08:07.534Z,26.29
2022-09-16T09:10:53.954Z,26.44
2022-09-16T09:13:44.765Z,26.85
2022-09-16T09:16:18.093Z,27.28
2022-09-16T09:19:04.701Z,27.40
2022-09-16T09:22:16.781Z,27.51
2022-09-16T09:24:56.669Z,26.80
2022-09-16T09:27:32.125Z,26.79
2022-09-16T09:30:21.705Z,27.21
2022-09-16T09:33:22.165Z,26.79
2022-09-16T09:36:19.930Z,26.98
2022-09-16T09:39:05.654Z,26.97
2022-09-16T09:41:39.910Z,27.27
2022-09-16T09:44:25.246Z,27.71
2022-09-16T09:47:01.196Z,28.22
2022-09-16T09:49:48.316Z,27.82
2022-09-16T09:52:38.851Z,27.70
2022-09-16T09:55:22.257Z,28.10
2022-09-16T09:58:19.113Z,28.10
2022-09-16T10:00:47.164Z,28.22
2022-09-16T10:03:18.736Z,28.07
2022-09-16T10:05:48.164Z,27.87
2022-09-16T10:08:21.753Z,27.76
2022-09-16T10:11:01.036Z,27.30
2022-09-16T10:13:32.502Z,27.42
2022-09-16T10:16:18.297Z,27.30
2022-09-16T10:18:45.940Z,27.23
2022-09-16T10:21:16.067Z,27.39
2022-09-16T10:23:57.675Z,27.70
2022-09-16T10:26:27.777Z,28.09
2022-09-16T10:29:23.426Z,28.12
2022-09-16T10:31:51.180Z,28.44
2022-09-16T10:34:32.779Z,28.08
2022-09-16T10:37:13.036Z,28.18
2022-09-16T10:39:50.644Z,28.15
2022-09-16T10:42:22.154Z,28.04
2022-09-16T10:44:52.014Z,28.24
2022-09-16T10:47:25.022Z,27.89
2022-09-16T10:49:58.549Z,27.89
2022-09-16T10:52:27.718Z,27.49
2022-09-16T10:54:56.225Z,27.91
2022-09-16T10:57:25.393Z,27.80
2022-09-16T11:00:16.187Z,27.65
2022-09-16T11:03:04.908Z,27.42
2022-09-16T11:05:41.275Z,27.77
2022-09-16T11:08:21.735Z,27.83
2022-09-16T11:11:00.030Z,27.64
2022-09-16T11:13:42.972Z,27.80
2022-09-16T11:16:34.687Z,27.82
2022-09-16T11:19:32.624Z,27.86
2022-09-16T11:22:09.870Z,27.99
2022-09-16T11:24:40.399Z,28.15
2022-09-16T11:27:25.876Z,28.08
2022-09-16T11:30:31.738Z,28.14
2022-09-16T11:33:33.891Z,27.87
2022-09-16T11:36:11.930Z,28.23
2022-09-16T11:39:04.571Z,28.52
2022-09-16T11:41:35.852Z,28.49
2022-09-16T11:44:16.239Z,28.88
2022-09-16T11:46:57.008Z,28.64
2022-09-16T11:49:51.714Z,28.51
2022-09-16T11:53:04.913Z,27.96
2022-09-16T11:55:52.319Z,28.28
2022-09-16T11:58:22.510Z,28.46
2022-09-16T12:00:54.882Z,28.61
2022-09-16T12:03:49.512Z,28.57
2022-09-16T12:06:21.472Z,29.23
2022-09-16T12:09:07.639Z,29.31
2022-09-16T12:11:43.780Z,29.70
2022-09-16T12:14:14.247Z,29.83
2022-09-16T12:16:54.448Z,29.87
2022-09-16T12:19:26.167Z,30.06
2022-09-16T12:22:03.814Z,30.15
2022-09-16T12:24:45.377Z,30.27
2022-09-16T12:27:41.827Z,30.07
2022-09-16T12:30:23.852Z,30.08
2022-09-16T12:33:24.715Z,30.23
2022-09-16T12:36:16.325Z,30.10
2022-09-16T12:38:45.531Z,30.19
2022-09-16T12:41:41.227Z,30.03
2022-09-16T12:44:33.999Z,29.55
2022-09-16T12:47:35.513Z,29.93
2022-09-16T12:50:09.629Z,29.41
2022-09-16T12:52:46.220Z,30.01
2022-09-16T12:55:26.042Z,30.11
2022-09-16T12:58:13.318Z,30.20
2022-09-16T13:01:07.258Z,30.22
2022-09-16T13:03:39.862Z,30.70
2022-09-16T13:06:20.980Z,30.44
2022-09-16T13:08:48.666Z,30.66
2022-09-16T13:14:32.691Z,30.03
2022-09-16T13:17:02.590Z,30.43
2022-09-16T13:19:52.766Z,30.63
2022-09-16T13:22:37.847Z,30.69
2022-09-16T13:25:14.287Z,30.65
2022-09-16T13:27:56.813Z,30.88
2022-09-16T13:30:36.551Z,30.62
2022-09-16T13:33:10.219Z,30.93
2022-09-16T13:35:42.076Z,30.66
2022-09-16T13:38:15.624Z,31.33
2022-09-16T13:40:55.381Z,30.86
2022-09-16T13:43:50.701Z,31.50
2022-09-16T13:46:38.326Z,31.69
2022-09-16T13:49:13.260Z,31.82
2022-09-16T13:51:48.390Z,32.16
2022-09-16T13:55:06.208Z,31.39
2022-09-16T13:57:55.856Z,32.16
2022-09-16T14:00:35.368Z,32.43
2022-09-16T14:03:31.805Z,32.06
2022-09-16T14:06:23.902Z,32.69
2022-09-16T14:09:15.099Z,32.87
2022-09-16T14:12:02.803Z,32.54
2022-09-16T14:14:48.577Z,32.79
2022-09-16T14:17:24.549Z,33.08
2022-09-16T14:19:58.594Z,32.67
2022-09-16T14:22:27.784Z,32.78
2022-09-16T14:25:06.142Z,32.76
2022-09-16T14:27:40.765Z,33.03
2022-09-16T14:30:18.968Z,32.63
2022-09-16T14:32:48.418Z,32.97
2022-09-16T14:35:21.863Z,32.93
2022-09-16T14:37:51.662Z,32.50
2022-09-16T14:40:23.778Z,32.81
2022-09-16T14:43:04.196Z,33.29
2022-09-16T14:45:33.492Z,33.18
2022-09-16T14:48:05.628Z,33.47
2022-09-16T14:50:38.474Z,33.63
2022-09-16T14:53:24.286Z,33.67
2022-09-16T14:58:30.537Z,33.79
2022-09-16T15:01:12.174Z,33.77
2022-09-16T15:03:49.917Z,33.86
2022-09-16T15:06:28.858Z,33.68
2022-09-16T15:09:15.966Z,33.90
2022-09-16T15:11:50.842Z,33.95
2022-09-16T15:14:19.302Z,33.95
2022-09-16T15:17:03.270Z,33.66
2022-09-16T15:19:38.302Z,33.96
2022-09-16T15:22:09.737Z,34.22
2022-09-16T15:24:41.388Z,34.32
2022-09-16T15:27:09.840Z,34.29
2022-09-16T15:29:49.513Z,34.03
2022-09-16T15:32:20.245Z,34.41
2022-09-16T15:34:48.212Z,34.25
2022-09-16T15:37:35.897Z,33.81
2022-09-16T15:40:27.870Z,36.61
2022-09-16T15:43:07.646Z,35.46
2022-09-16T15:45:35.224Z,37.34
2022-09-16T15:48:07.774Z,37.84
2022-09-16T15:50:54.878Z,37.80
2022-09-16T15:53:36.563Z,37.76
2022-09-16T15:56:17.315Z,41.86
2022-09-16T15:58:48.331Z,43.73
2022-09-16T16:01:39.462Z,45.33
2022-09-16T16:04:13.812Z,48.42
2022-09-16T16:06:54.491Z,48.95
2022-09-16T16:09:28.077Z,56.07
2022-09-16T16:12:07.862Z,57.29
2022-09-16T16:14:36.782Z,63.85
2022-09-16T16:17:13.900Z,66.01
2022-09-16T16:19:46.958Z,63.94
2022-09-16T16:22:15.801Z,61.51
2022-09-16T16:24:43.331Z,60.42
2022-09-16T16:27:10.967Z,59.68
2022-09-16T16:29:39.448Z,58.28
2022-09-16T16:32:09.609Z,57.53
2022-09-16T16:34:43.211Z,58.76
2022-09-16T16:37:27.946Z,57.04
2022-09-16T16:40:01.225Z,54.39
2022-09-16T16:42:31.477Z,55.33
2022-09-16T16:44:58.916Z,53.39
2022-09-16T16:47:26.585Z,51.10
2022-09-16T16:49:54.087Z,53.46
2022-09-16T16:52:21.748Z,52.59
2022-09-16T16:54:49.344Z,50.91
2022-09-16T16:57:18.223Z,51.47
2022-09-16T16:59:45.880Z,50.57
2022-09-16T17:02:15.263Z,49.19
2022-09-16T17:04:42.890Z,50.34
2022-09-16T17:07:27.945Z,48.60
2022-09-16T17:09:59.708Z,49.94
2022-09-16T17:12:27.821Z,48.18
2022-09-16T17:14:55.436Z,47.85
2022-09-16T17:17:25.368Z,47.70
2022-09-16T17:19:56.547Z,47.78
2022-09-16T17:22:24.142Z,47.57
2022-09-16T17:24:51.837Z,47.07
2022-09-16T17:27:21.075Z,46.44
2022-09-16T17:29:49.009Z,45.44
2022-09-16T17:32:20.086Z,45.91
2022-09-16T17:34:47.735Z,46.23
2022-09-16T17:37:17.376Z,45.79
2022-09-16T17:39:44.981Z,45.37
2022-09-16T17:42:12.723Z,44.83
2022-09-16T17:44:40.922Z,45.07
2022-09-16T17:47:09.058Z,44.96
2022-09-16T17:49:36.966Z,44.98
2022-09-16T17:52:04.700Z,44.48
2022-09-16T17:54:32.493Z,44.84
2022-09-16T17:57:00.471Z,43.73
2022-09-16T17:59:28.652Z,43.92
2022-09-16T18:01:56.140Z,43.96
2022-09-16T18:04:23.668Z,44.20
2022-09-16T18:06:51.488Z,44.11
2022-09-16T18:09:19.364Z,43.81
2022-09-16T18:11:47.496Z,43.74
2022-09-16T18:14:15.050Z,43.68
2022-09-16T18:16:43.545Z,43.86
2022-09-16T18:19:11.470Z,43.79
2022-09-16T18:21:38.992Z,43.91
2022-09-16T18:24:11.465Z,43.02
2022-09-16T18:26:40.947Z,42.67
2022-09-16T18:29:12.167Z,42.55
2022-09-16T18:31:42.159Z,42.67
2022-09-16T18:34:10.239Z,42.74
2022-09-16T18:36:39.493Z,42.23
2022-09-16T18:39:11.137Z,42.41
2022-09-16T18:41:41.048Z,42.11
2022-09-16T18:44:14.211Z,42.48
2022-09-16T18:46:42.518Z,41.72
2022-09-16T18:49:15.034Z,42.28
2022-09-16T18:51:51.376Z,41.59
2022-09-16T18:54:30.352Z,41.80
2022-09-16T18:57:00.086Z,41.32
2022-09-16T18:59:30.995Z,41.29
2022-09-16T19:02:01.357Z,40.93
2022-09-16T19:04:31.378Z,40.58
2022-09-16T19:07:07.605Z,40.99
2022-09-16T19:09:37.717Z,40.57
2022-09-16T19:12:05.876Z,40.21
2022-09-16T19:14:33.565Z,39.93
2022-09-16T19:17:01.484Z,40.13
2022-09-16T19:19:29.010Z,39.69
2022-09-16T19:21:56.897Z,39.67
2022-09-16T19:24:27.248Z,39.61
2022-09-16T19:26:55.767Z,39.26
2022-09-16T19:29:23.901Z,39.05
2022-09-16T19:31:53.038Z,39.33
2022-09-16T19:34:21.775Z,38.59
2022-09-16T19:36:49.614Z,38.87
2022-09-16T19:39:17.746Z,38.66
2022-09-16T19:41:45.452Z,38.80
2022-09-16T19:44:15.889Z,38.65
2022-09-16T19:46:45.124Z,38.61
2022-09-16T19:49:20.169Z,38.95
2022-09-16T19:51:48.638Z,38.66
2022-09-16T19:54:17.213Z,38.54
2022-09-16T19:56:49.543Z,38.66
2022-09-16T19:59:19.286Z,38.54
2022-09-16T20:01:48.001Z,38.38
2022-09-16T20:04:20.006Z,38.49
2022-09-16T20:06:48.521Z,38.72
2022-09-16T20:09:16.040Z,38.79
2022-09-16T20:11:47.124Z,38.81
2022-09-16T20:14:21.991Z,38.83
2022-09-16T20:16:51.168Z,38.40
2022-09-16T20:19:20.485Z,38.08
2022-09-16T20:21:48.615Z,38.39
2022-09-16T20:24:19.137Z,38.35
2022-09-16T20:26:52.107Z,38.38
2022-09-16T20:29:20.567Z,38.57
2022-09-16T20:31:49.988Z,38.05
2022-09-16T20:34:17.892Z,38.16
2022-09-16T20:36:46.247Z,37.75
2022-09-16T20:39:14.819Z,38.08
2022-09-16T20:41:43.282Z,38.23
2022-09-16T20:44:14.790Z,38.48
2022-09-16T20:46:42.389Z,37.59
2022-09-16T20:49:14.896Z,38.03
2022-09-16T20:51:42.756Z,37.73
2022-09-16T20:54:13.073Z,37.67
2022-09-16T20:56:42.591Z,37.46
2022-09-16T20:59:13.639Z,37.31
2022-09-16T21:01:42.063Z,37.31
2022-09-16T21:04:18.224Z,37.29
2022-09-16T21:06:45.932Z,37.30
2022-09-16T21:09:15.408Z,37.51
2022-09-16T21:11:46.513Z,37.27
2022-09-16T21:14:16.826Z,37.66
2022-09-16T21:16:46.196Z,37.15
2022-09-16T21:19:14.581Z,37.23
2022-09-16T21:21:44.698Z,37.03
2022-09-16T21:24:13.406Z,37.41
2022-09-16T21:26:41.783Z,37.01
2022-09-16T21:29:11.882Z,37.45
2022-09-16T21:31:41.356Z,37.21
2022-09-16T21:34:17.743Z,36.99
2022-09-16T21:36:45.911Z,37.14
2022-09-16T21:39:18.732Z,37.46
2022-09-16T21:41:47.856Z,37.28
2022-09-16T21:44:15.953Z,37.13
2022-09-16T21:46:46.560Z,37.06
2022-09-16T21:49:22.864Z,37.68
2022-09-16T21:51:55.038Z,37.20
2022-09-16T21:54:23.607Z,37.04
2022-09-16T21:56:51.941Z,37.05
2022-09-16T21:59:20.165Z,37.12
2022-09-16T22:01:49.677Z,36.79
2022-09-16T22:04:22.987Z,37.23
2022-09-16T22:06:52.951Z,37.01
2022-09-16T22:09:20.904Z,36.82
2022-09-16T22:11:48.417Z,36.84
2022-09-16T22:14:17.423Z,36.51
2022-09-16T22:16:45.317Z,36.57
2022-09-16T22:19:18.159Z,36.47
2022-09-16T22:21:48.270Z,36.83
2022-09-16T22:24:47.392Z,36.67
2022-09-16T22:27:33.410Z,36.63
2022-09-16T22:30:00.918Z,36.99
2022-09-16T22:32:28.603Z,36.60
2022-09-16T22:34:56.116Z,36.54
2022-09-16T22:37:23.541Z,36.67
2022-09-16T22:39:51.530Z,36.53
2022-09-16T22:42:18.880Z,36.91
2022-09-16T22:44:46.314Z,36.86
2022-09-16T22:47:13.852Z,36.77
2022-09-16T22:49:41.319Z,36.86
2022-09-16T22:52:08.672Z,36.89
2022-09-16T22:54:36.142Z,36.89
2022-09-16T22:57:03.611Z,37.79
2022-09-16T22:59:31.047Z,42.34
2022-09-16T23:01:59.349Z,42.74
2022-09-16T23:04:27.621Z,43.80
2022-09-16T23:06:55.164Z,43.31
2022-09-16T23:09:23.550Z,44.53
2022-09-16T23:11:51.091Z,44.22
2022-09-16T23:14:24.984Z,43.37
2022-09-16T23:16:54.063Z,42.13
2022-09-16T23:19:22.719Z,41.25
2022-09-16T23:21:50.381Z,41.40
2022-09-16T23:24:20.713Z,40.93
2022-09-16T23:26:49.314Z,44.97
2022-09-16T23:29:18.575Z,47.98
2022-09-16T23:31:46.634Z,51.89
2022-09-16T23:34:21.130Z,54.06
2022-09-16T23:36:49.520Z,51.38
2022-09-16T23:39:18.344Z,50.18
2022-09-16T23:41:46.421Z,50.90
2022-09-16T23:44:15.988Z,50.28
2022-09-16T23:46:43.883Z,50.70
2022-09-16T23:49:11.759Z,49.72
2022-09-16T23:51:39.267Z,50.16
2022-09-16T23:54:06.679Z,51.69
2022-09-16T23:56:34.452Z,51.38
2022-09-16T23:59:02.202Z,51.56
